Time;durP1;ratioP1;P1;durP2;ratioP2;P2;SDS_P1;SDS_P2;PMS_P1;PMS_P2;Temp;Humidity;BMP_temperature;BMP_pressure;BME280_temperature;BME280_humidity;BME280_pressure;Samples;Min_cycle;Max_cycle;Signal;HPM_P1;HPM_P2
2021/01/13 00:02:15;;;;;;;16.55;10.95;;;1.80;99.90;;;;;;5015774;28;20022;-72
2021/01/13 00:04:41;;;;;;;15.82;11.73;;;1.90;99.90;;;;;;5016439;28;20037;-73
2021/01/13 00:07:07;;;;;;;14.93;11.13;;;2.00;99.90;;;;;;5014526;28;20099;-72
2021/01/13 00:09:33;;;;;;;18.25;11.38;;;2.10;99.90;;;;;;5014806;28;20076;-72
2021/01/13 00:11:59;;;;;;;17.38;10.80;;;2.10;99.90;;;;;;5015907;28;20100;-73
2021/01/13 00:14:26;;;;;;;13.95;10.48;;;2.10;99.90;;;;;;5014297;28;20037;-72
2021/01/13 00:16:53;;;;;;;17.63;11.20;;;2.10;99.90;;;;;;5018865;28;20040;-72
2021/01/13 00:19:22;;;;;;;17.33;10.52;;;1.90;99.90;;;;;;5018683;28;20038;-72
2021/01/13 00:21:52;;;;;;;17.65;11.25;;;1.90;99.90;;;;;;5012761;28;20026;-73
2021/01/13 00:24:19;;;;;;;14.48;10.40;;;2.00;99.90;;;;;;5018323;28;20025;-73
2021/01/13 00:26:46;;;;;;;15.65;10.38;;;2.00;99.90;;;;;;5006098;28;20036;-73
2021/01/13 00:29:17;;;;;;;16.30;10.43;;;1.90;99.90;;;;;;5018059;28;20037;-73
2021/01/13 00:31:44;;;;;;;19.60;12.63;;;1.80;99.90;;;;;;5019145;28;20033;-73
2021/01/13 00:34:11;;;;;;;13.25;10.70;;;1.70;99.90;;;;;;5018079;28;20076;-73
2021/01/13 00:36:38;;;;;;;18.98;12.05;;;1.80;99.90;;;;;;5017049;28;20032;-72
2021/01/13 00:39:05;;;;;;;16.90;10.75;;;1.80;99.90;;;;;;5017877;28;20022;-72
2021/01/13 00:41:31;;;;;;;16.63;11.40;;;1.80;99.90;;;;;;5017200;28;20030;-72
2021/01/13 00:44:00;;;;;;;13.88;9.43;;;1.70;99.90;;;;;;5018972;28;20021;-72
2021/01/13 00:46:38;;;;;;;17.55;10.10;;;1.80;99.90;;;;;;5018317;28;20026;-73
2021/01/13 00:49:05;;;;;;;20.67;11.80;;;1.80;99.90;;;;;;5017184;28;20022;-73
2021/01/13 00:51:35;;;;;;;17.48;12.38;;;1.80;99.90;;;;;;5019132;28;20030;-73
2021/01/13 00:54:01;;;;;;;18.77;11.82;;;1.70;99.90;;;;;;5016874;28;20037;-73
2021/01/13 00:56:28;;;;;;;22.90;12.65;;;1.80;99.90;;;;;;5011080;28;20025;-72
2021/01/13 00:58:56;;;;;;;17.10;12.25;;;1.90;99.90;;;;;;5017146;28;20422;-73
2021/01/13 01:01:25;;;;;;;19.83;12.05;;;1.80;99.90;;;;;;5015990;28;20025;-73
2021/01/13 01:03:53;;;;;;;17.02;11.52;;;1.80;99.90;;;;;;5016374;28;20033;-73
2021/01/13 01:06:19;;;;;;;15.65;10.32;;;1.70;99.90;;;;;;5017494;28;20052;-72
2021/01/13 01:08:46;;;;;;;17.50;9.80;;;1.70;99.90;;;;;;5015061;28;20036;-72
2021/01/13 01:11:15;;;;;;;15.40;9.98;;;1.60;99.90;;;;;;5014615;28;20497;-72
2021/01/13 01:13:41;;;;;;;13.82;10.38;;;1.60;99.90;;;;;;5014392;28;20099;-72
2021/01/13 01:16:08;;;;;;;14.40;9.75;;;1.70;99.90;;;;;;5017469;28;20022;-73
2021/01/13 01:18:34;;;;;;;12.88;9.18;;;1.80;99.90;;;;;;5016027;28;20022;-69
2021/01/13 01:21:00;;;;;;;11.63;9.00;;;1.80;99.90;;;;;;5014905;28;20085;-73
2021/01/13 01:23:28;;;;;;;11.10;8.05;;;1.70;99.90;;;;;;5015694;28;20077;-75
2021/01/13 01:25:54;;;;;;;15.23;7.85;;;1.80;99.90;;;;;;5015834;28;20026;-73
2021/01/13 01:28:20;;;;;;;12.90;9.05;;;1.70;99.90;;;;;;5015021;28;20029;-74
2021/01/13 01:30:46;;;;;;;12.07;8.77;;;1.70;99.90;;;;;;5009962;28;20077;-72
2021/01/13 01:33:12;;;;;;;12.93;8.27;;;1.70;99.90;;;;;;5014804;28;20026;-72
2021/01/13 01:35:38;;;;;;;10.15;8.13;;;1.70;99.90;;;;;;5004974;28;20034;-73
2021/01/13 01:38:04;;;;;;;10.13;8.13;;;1.80;99.90;;;;;;5010692;28;20049;-75
2021/01/13 01:40:33;;;;;;;11.02;8.65;;;1.80;99.90;;;;;;5015418;28;20044;-73
2021/01/13 01:45:43;;;;;;;18.08;8.40;;;1.70;99.90;;;;;;5015111;28;20109;-73
2021/01/13 01:48:22;;;;;;;12.95;8.40;;;1.70;99.90;;;;;;5015498;28;20026;-72
2021/01/13 01:50:52;;;;;;;13.68;9.98;;;1.60;99.90;;;;;;5014180;28;20109;-72
2021/01/13 01:53:28;;;;;;;14.40;8.63;;;1.60;99.90;;;;;;5015227;28;20025;-73
2021/01/13 01:56:15;;;;;;;12.68;8.73;;;1.60;99.90;;;;;;5013373;28;20037;-73
2021/01/13 01:58:47;;;;;;;10.95;8.50;;;1.70;99.90;;;;;;5016341;28;20033;-75
2021/01/13 02:01:34;;;;;;;8.75;7.07;;;1.70;99.90;;;;;;5014918;28;20025;-73
2021/01/13 02:04:07;;;;;;;13.32;8.05;;;1.70;99.90;;;;;;5016627;28;20025;-72
2021/01/13 02:06:38;;;;;;;10.50;7.65;;;1.70;99.90;;;;;;5018627;28;20021;-72
2021/01/13 02:09:04;;;;;;;13.77;8.90;;;1.70;99.90;;;;;;5015663;28;20022;-72
2021/01/13 02:11:32;;;;;;;11.48;8.15;;;1.70;99.90;;;;;;5018186;28;20272;-71
2021/01/13 02:14:01;;;;;;;13.10;8.18;;;1.70;99.90;;;;;;5017369;28;20022;-71
2021/01/13 02:16:31;;;;;;;12.80;8.82;;;1.70;99.90;;;;;;5015600;28;20041;-76
2021/01/13 02:19:00;;;;;;;10.32;7.60;;;1.70;99.90;;;;;;5016509;28;20080;-72
2021/01/13 02:21:31;;;;;;;11.70;8.27;;;1.70;99.90;;;;;;5016386;28;20052;-72
2021/01/13 02:24:09;;;;;;;16.15;9.55;;;1.70;99.90;;;;;;5017899;28;20022;-71
2021/01/13 02:27:12;;;;;;;12.18;8.13;;;1.60;99.90;;;;;;5018909;28;20018;-75
2021/01/13 02:29:47;;;;;;;17.77;8.63;;;1.60;99.90;;;;;;5011050;28;20095;-75
2021/01/13 02:32:25;;;;;;;12.48;7.82;;;1.60;99.90;;;;;;5012797;28;20056;-72
2021/01/13 02:35:15;;;;;;;17.70;8.00;;;1.60;99.90;;;;;;5017168;28;20026;-71
2021/01/13 02:37:44;;;;;;;10.00;7.53;;;1.60;99.90;;;;;;5014714;28;20155;-72
2021/01/13 02:40:23;;;;;;;12.68;9.45;;;1.60;99.90;;;;;;5008464;28;20107;-72
2021/01/13 02:43:07;;;;;;;11.20;7.70;;;1.80;99.90;;;;;;5016513;28;20112;-72
2021/01/13 02:45:38;;;;;;;8.55;7.45;;;1.70;99.90;;;;;;5015002;28;20018;-72
2021/01/13 02:48:07;;;;;;;9.68;6.97;;;1.80;99.90;;;;;;5017061;28;20057;-72
2021/01/13 02:50:35;;;;;;;10.25;6.43;;;1.80;99.90;;;;;;5016696;28;20022;-72
2021/01/13 02:53:13;;;;;;;11.13;7.07;;;1.70;99.90;;;;;;5014477;28;20030;-72
2021/01/13 02:55:49;;;;;;;8.98;6.38;;;1.80;99.90;;;;;;5012976;28;20034;-73
2021/01/13 02:58:36;;;;;;;9.82;6.95;;;1.70;99.90;;;;;;5013385;28;20057;-73
2021/01/13 03:01:06;;;;;;;8.00;6.13;;;1.70;99.90;;;;;;5014686;28;20042;-73
2021/01/13 03:03:33;;;;;;;12.88;7.93;;;1.70;99.90;;;;;;5012898;28;20390;-73
2021/01/13 03:06:27;;;;;;;10.13;7.18;;;1.70;99.90;;;;;;5013149;28;20026;-72
2021/01/13 03:09:12;;;;;;;11.70;7.72;;;1.70;99.90;;;;;;5014037;28;20068;-72
2021/01/13 03:11:45;;;;;;;12.55;8.80;;;1.70;99.90;;;;;;5014490;28;20033;-73
2021/01/13 03:14:20;;;;;;;16.45;10.10;;;1.80;99.90;;;;;;5014504;28;20022;-73
2021/01/13 03:17:09;;;;;;;14.32;9.48;;;1.70;99.90;;;;;;5013694;28;20474;-72
2021/01/13 03:19:46;;;;;;;17.70;9.43;;;1.60;99.90;;;;;;5014124;28;20109;-71
2021/01/13 03:22:39;;;;;;;16.33;9.88;;;1.50;99.90;;;;;;5007795;28;20486;-73
2021/01/13 03:25:09;;;;;;;12.20;9.00;;;1.40;99.90;;;;;;5015446;28;20094;-72
2021/01/13 03:27:38;;;;;;;18.95;10.23;;;1.40;99.90;;;;;;5015477;28;20029;-72
2021/01/13 03:30:10;;;;;;;11.93;9.40;;;1.40;99.90;;;;;;5011394;28;20037;-72
2021/01/13 03:32:56;;;;;;;10.50;7.28;;;1.50;99.90;;;;;;5013634;28;20072;-73
2021/01/13 03:36:21;;;;;;;12.90;8.93;;;1.40;99.90;;;;;;4992159;28;20034;-73
2021/01/13 03:39:07;;;;;;;11.77;9.05;;;1.50;99.90;;;;;;4988143;28;20046;-72
2021/01/13 03:41:53;;;;;;;10.57;8.40;;;1.40;99.90;;;;;;5013872;28;20072;-72
2021/01/13 03:44:28;;;;;;;12.60;8.80;;;1.30;99.90;;;;;;5013403;28;20034;-72
2021/01/13 03:46:57;;;;;;;12.15;8.20;;;1.10;99.90;;;;;;5013836;28;20496;-73
2021/01/13 03:49:40;;;;;;;13.70;9.90;;;1.20;99.90;;;;;;5012124;28;20080;-72
2021/01/13 03:52:11;;;;;;;13.90;10.10;;;1.20;99.90;;;;;;5014274;28;20026;-72
2021/01/13 03:54:37;;;;;;;15.60;9.40;;;1.20;99.90;;;;;;5012367;28;20072;-72
2021/01/13 03:57:08;;;;;;;10.55;7.78;;;1.20;99.90;;;;;;5012798;28;20026;-72
2021/01/13 03:59:59;;;;;;;11.10;8.10;;;1.30;99.90;;;;;;5012926;28;20533;-72
2021/01/13 04:02:29;;;;;;;17.08;8.55;;;1.20;99.90;;;;;;5011815;28;20537;-72
2021/01/13 04:05:30;;;;;;;9.68;7.45;;;1.20;99.90;;;;;;5014448;28;20406;-72
2021/01/13 04:07:57;;;;;;;11.75;10.48;;;1.30;99.90;;;;;;4983518;28;20034;-72
2021/01/13 04:10:24;;;;;;;12.77;8.60;;;1.30;99.90;;;;;;5013607;28;20052;-72
2021/01/13 04:13:40;;;;;;;9.73;7.80;;;1.30;99.90;;;;;;5013539;28;20434;-72
2021/01/13 04:16:07;;;;;;;10.52;8.63;;;1.30;99.90;;;;;;5015198;28;20131;-72
2021/01/13 04:18:34;;;;;;;12.48;7.90;;;1.30;99.90;;;;;;5011908;28;20097;-72
2021/01/13 04:21:00;;;;;;;11.75;8.27;;;1.30;99.90;;;;;;5013804;28;20022;-72
2021/01/13 04:23:27;;;;;;;10.23;8.25;;;1.30;99.90;;;;;;5007783;28;20089;-72
2021/01/13 04:25:53;;;;;;;12.50;9.15;;;1.30;99.90;;;;;;5012880;28;20373;-71
2021/01/13 04:28:19;;;;;;;10.98;8.73;;;1.20;99.90;;;;;;5013016;28;20469;-72
2021/01/13 04:30:46;;;;;;;17.27;8.65;;;1.20;99.90;;;;;;5011497;28;20049;-72
2021/01/13 04:33:12;;;;;;;11.57;8.70;;;1.30;99.90;;;;;;5013596;28;20030;-72
2021/01/13 04:35:38;;;;;;;11.35;9.82;;;1.20;99.90;;;;;;5013895;28;20056;-72
2021/01/13 04:38:04;;;;;;;14.43;9.73;;;1.20;99.90;;;;;;5013879;28;20014;-72
2021/01/13 04:40:38;;;;;;;15.55;9.38;;;1.30;99.90;;;;;;5012950;28;20061;-71
2021/01/13 04:43:10;;;;;;;12.68;9.35;;;1.20;99.90;;;;;;5014746;28;20025;-73
2021/01/13 04:45:41;;;;;;;11.88;8.60;;;1.10;99.90;;;;;;5013129;28;20565;-71
2021/01/13 04:48:12;;;;;;;12.55;9.00;;;1.10;99.90;;;;;;5008090;28;20026;-73
2021/01/13 04:50:50;;;;;;;16.75;9.77;;;1.10;99.90;;;;;;5012558;28;20041;-71
2021/01/13 04:53:19;;;;;;;13.30;8.55;;;1.00;99.90;;;;;;5008622;28;20040;-71
2021/01/13 04:55:58;;;;;;;16.50;8.63;;;1.00;99.90;;;;;;5012916;28;20088;-71
2021/01/13 04:58:56;;;;;;;15.23;10.25;;;0.90;99.90;;;;;;5013134;28;20029;-71
2021/01/13 05:01:35;;;;;;;12.90;9.57;;;0.90;99.90;;;;;;5008923;28;20090;-74
2021/01/13 05:04:22;;;;;;;14.40;9.68;;;1.00;99.90;;;;;;5017252;28;20045;-72
2021/01/13 05:07:00;;;;;;;13.57;8.60;;;1.00;99.90;;;;;;5015648;28;20030;-71
2021/01/13 05:09:40;;;;;;;15.52;11.07;;;1.10;99.90;;;;;;5020198;28;20026;-71
2021/01/13 05:12:08;;;;;;;14.10;10.00;;;1.10;99.90;;;;;;5024308;28;20056;-71
2021/01/13 05:14:45;;;;;;;14.43;10.20;;;1.00;99.90;;;;;;5024006;28;20064;-71
2021/01/13 05:17:33;;;;;;;11.68;9.10;;;1.00;99.90;;;;;;5012005;28;20037;-71
2021/01/13 05:20:05;;;;;;;14.85;8.88;;;1.00;99.90;;;;;;5017212;28;20022;-73
2021/01/13 05:22:33;;;;;;;11.02;7.20;;;1.00;99.90;;;;;;5016105;28;20116;-71
2021/01/13 05:25:04;;;;;;;15.38;8.60;;;1.20;99.90;;;;;;5016467;28;20088;-71
2021/01/13 05:28:03;;;;;;;12.50;7.88;;;1.40;99.90;;;;;;5017568;28;20596;-71
2021/01/13 05:30:32;;;;;;;12.60;8.02;;;1.40;99.90;;;;;;5016186;28;20042;-71
2021/01/13 05:32:58;;;;;;;13.98;9.30;;;1.40;99.90;;;;;;5015604;28;20062;-71
2021/01/13 05:35:29;;;;;;;9.32;7.60;;;1.50;99.90;;;;;;5010591;28;20044;-71
2021/01/13 05:38:11;;;;;;;11.90;8.02;;;1.50;99.90;;;;;;5006465;28;20080;-71
2021/01/13 05:40:49;;;;;;;12.32;8.68;;;1.50;99.90;;;;;;5017805;28;20022;-72
2021/01/13 05:43:17;;;;;;;17.40;9.38;;;1.50;99.90;;;;;;5016995;28;20037;-72
2021/01/13 05:45:43;;;;;;;18.52;10.57;;;1.40;99.90;;;;;;5016094;28;20385;-71
2021/01/13 05:48:22;;;;;;;11.65;9.27;;;1.30;99.90;;;;;;5015643;28;20476;-71
2021/01/13 05:53:54;;;;;;;17.38;9.75;;;1.20;99.90;;;;;;5010952;28;20046;-71
2021/01/13 05:56:27;;;;;;;10.98;9.25;;;1.20;99.90;;;;;;5017447;28;20022;-72
2021/01/13 05:59:04;;;;;;;14.07;10.38;;;1.10;99.90;;;;;;5015154;28;20034;-72
2021/01/13 06:01:57;;;;;;;15.65;10.05;;;1.10;99.90;;;;;;5014284;28;20106;-72
2021/01/13 06:04:24;;;;;;;13.10;8.88;;;1.10;99.90;;;;;;5017429;28;20070;-72
2021/01/13 06:07:02;;;;;;;16.10;10.23;;;1.10;99.90;;;;;;5016520;28;20026;-74
2021/01/13 06:09:29;;;;;;;25.33;9.68;;;1.30;99.90;;;;;;5015730;28;20029;-71
2021/01/13 06:11:56;;;;;;;13.65;10.63;;;1.30;99.90;;;;;;5017199;28;20030;-72
2021/01/13 06:14:24;;;;;;;14.38;9.23;;;1.20;99.90;;;;;;5015599;28;20490;-71
2021/01/13 06:16:52;;;;;;;13.13;8.95;;;1.20;99.90;;;;;;5015569;28;20030;-71
2021/01/13 06:19:21;;;;;;;14.48;9.68;;;1.10;99.90;;;;;;5011895;28;20026;-71
2021/01/13 06:22:02;;;;;;;8.82;6.85;;;1.10;99.90;;;;;;5016694;28;20037;-72
2021/01/13 06:24:33;;;;;;;11.07;9.02;;;1.20;99.90;;;;;;5018518;28;20022;-71
2021/01/13 06:27:17;;;;;;;16.35;9.38;;;1.40;99.90;;;;;;5025150;28;20026;-72
2021/01/13 06:30:03;;;;;;;15.60;9.10;;;1.40;99.90;;;;;;5025359;28;20037;-71
2021/01/13 06:33:03;;;;;;;14.95;9.80;;;1.40;99.90;;;;;;5014188;28;20062;-74
2021/01/13 06:35:42;;;;;;;16.35;10.05;;;1.30;99.90;;;;;;5010718;28;20531;-72
2021/01/13 06:38:14;;;;;;;15.43;9.93;;;1.20;99.90;;;;;;5016442;28;20040;-72
2021/01/13 06:40:44;;;;;;;12.68;8.80;;;1.20;99.90;;;;;;5017208;28;20024;-72
2021/01/13 06:43:11;;;;;;;20.63;11.55;;;1.10;99.90;;;;;;5015361;28;20026;-72
2021/01/13 06:45:38;;;;;;;19.73;11.50;;;1.20;99.90;;;;;;5015207;28;20072;-73
2021/01/13 06:48:04;;;;;;;15.05;10.77;;;1.10;99.90;;;;;;5015181;28;20657;-72
2021/01/13 06:50:41;;;;;;;14.50;10.23;;;1.00;99.90;;;;;;5016281;28;20037;-72
2021/01/13 06:53:11;;;;;;;13.30;9.10;;;0.90;99.90;;;;;;5010191;28;20033;-72
2021/01/13 06:55:41;;;;;;;12.77;10.02;;;0.90;99.90;;;;;;5015729;28;20051;-72
2021/01/13 06:58:18;;;;;;;16.60;12.27;;;0.90;99.90;;;;;;5013876;28;20022;-72
2021/01/13 07:00:46;;;;;;;22.10;14.80;;;1.00;99.90;;;;;;5013202;28;20037;-73
2021/01/13 07:03:32;;;;;;;30.83;17.15;;;0.90;99.90;;;;;;5014854;28;20560;-72
2021/01/13 07:06:20;;;;;;;23.55;13.27;;;0.80;99.90;;;;;;5014362;28;20036;-71
2021/01/13 07:08:47;;;;;;;20.33;13.93;;;0.70;99.90;;;;;;5013844;28;20046;-72
2021/01/13 07:11:13;;;;;;;17.35;11.93;;;0.70;99.90;;;;;;5016371;28;20053;-71
2021/01/13 07:13:40;;;;;;;21.55;12.77;;;1.00;99.90;;;;;;5014450;28;20041;-71
2021/01/13 07:16:08;;;;;;;16.67;10.80;;;1.10;99.90;;;;;;5011448;28;20030;-72
2021/01/13 07:18:35;;;;;;;12.73;9.82;;;1.30;99.90;;;;;;5011226;28;20022;-71
2021/01/13 07:21:10;;;;;;;18.83;9.50;;;1.70;99.90;;;;;;5016022;28;20123;-72
2021/01/13 07:23:40;;;;;;;8.27;6.93;;;2.30;99.90;;;;;;5013541;28;20386;-72
2021/01/13 07:26:06;;;;;;;13.60;7.07;;;2.60;99.90;;;;;;5015787;28;20042;-72
2021/01/13 07:28:36;;;;;;;12.95;9.82;;;2.80;99.90;;;;;;5015170;28;20532;-71
2021/01/13 07:31:03;;;;;;;20.13;11.52;;;3.60;99.90;;;;;;5006405;28;20064;-73
2021/01/13 07:33:41;;;;;;;20.98;11.85;;;4.10;99.90;;;;;;5014255;28;20034;-73
2021/01/13 07:36:13;;;;;;;17.83;12.77;;;4.30;99.90;;;;;;5000070;28;20116;-72
2021/01/13 07:38:43;;;;;;;22.98;14.20;;;4.70;99.90;;;;;;5025850;28;20014;-72
2021/01/13 07:44:44;;;;;;;9.57;7.68;;;4.70;99.90;;;;;;4994139;28;20080;-72
2021/01/13 07:47:26;;;;;;;14.30;9.32;;;4.70;99.90;;;;;;5009987;28;20021;-72
2021/01/13 07:50:05;;;;;;;12.15;7.93;;;4.50;99.90;;;;;;5013605;28;20026;-74
2021/01/13 07:52:44;;;;;;;20.63;7.82;;;4.20;99.90;;;;;;5015361;28;20044;-73
2021/01/13 07:55:16;;;;;;;13.73;8.65;;;4.30;99.90;;;;;;5008358;28;20065;-74
2021/01/13 07:58:01;;;;;;;13.20;9.05;;;4.30;99.90;;;;;;5008290;28;20026;-72
2021/01/13 08:00:34;;;;;;;10.85;8.32;;;4.50;99.90;;;;;;5005023;28;20038;-72
2021/01/13 08:03:18;;;;;;;13.63;7.80;;;4.50;99.90;;;;;;5004971;28;20029;-72
2021/01/13 08:06:21;;;;;;;16.88;8.20;;;4.50;99.90;;;;;;5009824;28;20026;-72
2021/01/13 08:09:05;;;;;;;9.55;7.63;;;4.50;99.90;;;;;;5014527;28;20032;-74
2021/01/13 08:11:40;;;;;;;12.32;9.07;;;4.50;99.90;;;;;;5010254;28;20133;-73
2021/01/13 08:14:50;;;;;;;14.93;8.95;;;4.90;99.90;;;;;;5011237;28;20034;-74
2021/01/13 08:18:01;;;;;;;16.60;8.45;;;5.10;99.90;;;;;;5003989;28;20461;-73
2021/01/13 08:20:50;;;;;;;12.13;8.32;;;5.40;99.90;;;;;;5007431;28;20030;-72
2021/01/13 08:23:28;;;;;;;17.70;8.45;;;5.60;99.90;;;;;;5006136;28;20021;-73
2021/01/13 08:25:56;;;;;;;17.48;7.95;;;6.00;99.90;;;;;;5005808;28;20029;-73
2021/01/13 08:28:23;;;;;;;17.77;8.02;;;6.10;99.90;;;;;;4999031;28;20030;-73
2021/01/13 08:30:50;;;;;;;12.18;7.85;;;6.20;99.90;;;;;;5003243;28;20046;-72
2021/01/13 08:33:21;;;;;;;13.35;8.25;;;6.10;99.90;;;;;;5006674;28;20194;-73
2021/01/13 08:35:48;;;;;;;19.55;8.65;;;6.10;99.90;;;;;;5008025;28;20042;-72
2021/01/13 08:38:16;;;;;;;17.55;9.88;;;6.20;99.90;;;;;;5012124;28;20148;-73
2021/01/13 08:40:44;;;;;;;17.88;9.18;;;6.10;99.90;;;;;;5012461;28;20025;-72
2021/01/13 08:43:14;;;;;;;19.15;9.43;;;6.20;99.90;;;;;;5009942;28;20136;-73
2021/01/13 08:45:44;;;;;;;23.15;9.50;;;6.40;99.90;;;;;;5011170;28;20097;-73
2021/01/13 08:48:15;;;;;;;18.17;8.93;;;6.50;99.90;;;;;;5005632;28;20711;-75
2021/01/13 08:50:43;;;;;;;17.15;9.27;;;6.30;99.90;;;;;;5012340;28;20073;-73
2021/01/13 08:53:24;;;;;;;13.77;8.50;;;6.10;99.90;;;;;;5011606;28;20030;-73
2021/01/13 08:55:53;;;;;;;23.88;9.65;;;5.90;99.90;;;;;;5017344;28;20034;-73
2021/01/13 08:58:53;;;;;;;12.10;8.38;;;6.00;99.90;;;;;;5016918;28;20085;-73
2021/01/13 09:01:19;;;;;;;18.48;9.43;;;6.00;99.90;;;;;;5013733;28;20490;-76
2021/01/13 09:04:03;;;;;;;13.88;9.45;;;6.00;99.90;;;;;;5013210;28;20026;-73
2021/01/13 09:06:30;;;;;;;22.35;9.57;;;6.10;99.90;;;;;;5008847;28;20022;-73
2021/01/13 09:08:59;;;;;;;18.23;10.43;;;6.20;99.90;;;;;;5012514;28;20024;-72
2021/01/13 09:11:35;;;;;;;19.08;10.70;;;6.10;99.90;;;;;;5010837;28;20056;-74
2021/01/13 09:14:22;;;;;;;18.65;10.70;;;6.10;99.90;;;;;;5003366;28;20034;-73
2021/01/13 09:16:53;;;;;;;19.63;11.02;;;6.30;99.90;;;;;;5013487;28;20136;-73
2021/01/13 09:19:30;;;;;;;18.48;10.38;;;6.30;99.90;;;;;;5019787;28;20086;-73
2021/01/13 09:22:01;;;;;;;16.33;10.25;;;6.40;99.90;;;;;;5005730;28;20026;-73
2021/01/13 09:24:34;;;;;;;16.92;8.75;;;6.50;99.90;;;;;;5013221;28;20077;-73
2021/01/13 09:27:04;;;;;;;13.40;9.73;;;6.60;99.90;;;;;;5012172;28;20184;-72
2021/01/13 09:29:47;;;;;;;15.52;10.70;;;6.60;99.90;;;;;;5009906;28;20018;-73
2021/01/13 09:32:16;;;;;;;13.68;8.85;;;6.70;99.90;;;;;;5011314;28;20030;-72
2021/01/13 09:34:50;;;;;;;25.92;11.57;;;6.70;99.90;;;;;;4998700;28;20128;-74
2021/01/13 09:37:19;;;;;;;15.93;10.63;;;6.70;99.90;;;;;;5012638;28;20033;-73
2021/01/13 09:40:02;;;;;;;16.05;10.88;;;6.70;99.90;;;;;;5012760;28;20240;-72
2021/01/13 09:42:39;;;;;;;14.38;11.55;;;6.90;99.90;;;;;;5011058;28;20105;-74
2021/01/13 09:45:13;;;;;;;19.20;11.57;;;7.10;99.90;;;;;;5013754;28;20057;-72
2021/01/13 09:47:40;;;;;;;21.90;13.23;;;7.20;99.90;;;;;;5009052;28;20030;-74
2021/01/13 09:50:10;;;;;;;21.33;14.30;;;7.30;99.90;;;;;;5011413;28;20022;-72
2021/01/13 09:52:47;;;;;;;23.10;14.80;;;7.30;99.90;;;;;;5010217;28;20022;-75
2021/01/13 09:55:13;;;;;;;16.15;12.98;;;7.30;99.90;;;;;;5008309;28;20104;-76
2021/01/13 09:57:39;;;;;;;23.77;14.02;;;7.30;99.90;;;;;;5006153;28;20034;-73
2021/01/13 10:00:12;;;;;;;23.98;15.75;;;7.50;99.90;;;;;;5010590;28;20029;-72
2021/01/13 10:02:39;;;;;;;28.73;14.50;;;7.70;99.90;;;;;;5015049;28;20030;-75
2021/01/13 10:05:06;;;;;;;22.55;15.15;;;7.70;99.90;;;;;;5016139;28;20048;-74
2021/01/13 10:07:35;;;;;;;26.38;16.40;;;7.70;99.90;;;;;;5010851;28;20288;-73
2021/01/13 10:10:06;;;;;;;24.90;16.38;;;7.60;99.90;;;;;;5012662;28;20057;-72
2021/01/13 10:12:39;;;;;;;28.23;17.17;;;7.50;99.90;;;;;;5010545;28;20026;-73
2021/01/13 10:15:08;;;;;;;24.75;17.30;;;7.60;99.90;;;;;;5011295;28;20026;-73
2021/01/13 10:17:37;;;;;;;26.23;17.30;;;7.50;99.90;;;;;;5009191;28;20026;-73
2021/01/13 10:20:14;;;;;;;22.77;14.68;;;7.40;99.90;;;;;;5010159;28;20021;-72
2021/01/13 10:22:41;;;;;;;35.22;14.75;;;7.20;99.90;;;;;;5005841;28;20030;-73
2021/01/13 10:25:08;;;;;;;31.73;16.00;;;7.00;99.90;;;;;;5011389;28;20381;-73
2021/01/13 10:27:41;;;;;;;25.00;15.00;;;6.90;99.90;;;;;;5010222;28;20064;-73
2021/01/13 10:30:09;;;;;;;25.83;18.27;;;6.80;99.90;;;;;;5012419;28;20029;-74
2021/01/13 10:32:52;;;;;;;26.23;17.38;;;6.80;99.90;;;;;;5010264;28;20090;-73
2021/01/13 10:35:20;;;;;;;23.10;15.95;;;6.90;99.90;;;;;;5006873;28;20048;-72
2021/01/13 10:37:51;;;;;;;26.42;16.38;;;6.90;99.90;;;;;;5009563;28;20076;-72
2021/01/13 10:40:21;;;;;;;27.45;14.98;;;6.80;99.90;;;;;;5008161;28;20237;-74
2021/01/13 10:42:53;;;;;;;24.65;17.35;;;6.80;99.90;;;;;;5010697;28;20022;-74
2021/01/13 10:45:19;;;;;;;;;;;6.90;99.90;;;;;;5015073;28;20090;-74
2021/01/13 10:47:53;;;;;;;26.60;18.83;;;6.80;99.90;;;;;;5008217;28;19968;-72
2021/01/13 10:50:22;;;;;;;23.95;17.42;;;6.70;99.90;;;;;;5005235;28;20100;-73
2021/01/13 10:52:57;;;;;;;23.63;17.05;;;6.70;99.90;;;;;;5004394;28;20046;-73
2021/01/13 10:55:25;;;;;;;20.90;16.75;;;6.90;99.90;;;;;;5012297;28;20057;-73
2021/01/13 10:57:52;;;;;;;21.40;16.77;;;7.10;99.90;;;;;;5001141;28;20026;-73
2021/01/13 11:00:21;;;;;;;22.48;17.42;;;7.20;99.90;;;;;;5001970;28;20408;-74
2021/01/13 11:03:04;;;;;;;31.95;19.27;;;7.20;99.90;;;;;;5009586;28;20026;-72
2021/01/13 11:05:35;;;;;;;22.73;18.63;;;7.30;99.90;;;;;;5008821;28;20029;-73
2021/01/13 11:08:03;;;;;;;21.85;18.25;;;7.30;99.90;;;;;;5012376;28;20061;-72
2021/01/13 11:10:29;;;;;;;31.60;23.88;;;7.30;99.90;;;;;;5010447;28;20030;-73
2021/01/13 11:13:08;;;;;;;30.15;18.50;;;7.40;99.90;;;;;;5007024;28;20448;-74
2021/01/13 11:15:34;;;;;;;28.75;18.02;;;7.50;99.90;;;;;;5009102;28;20030;-72
2021/01/13 11:18:08;;;;;;;28.40;19.85;;;7.50;99.90;;;;;;5008912;28;20030;-74
2021/01/13 11:20:34;;;;;;;24.50;18.67;;;7.50;99.90;;;;;;5009589;28;20436;-73
2021/01/13 11:23:05;;;;;;;20.92;17.40;;;7.50;99.90;;;;;;5008598;28;20069;-72
2021/01/13 11:25:36;;;;;;;21.17;13.63;;;7.50;99.90;;;;;;5009131;28;20097;-74
2021/01/13 11:28:13;;;;;;;26.77;21.20;;;7.50;99.90;;;;;;5006102;28;20085;-73
2021/01/13 11:30:44;;;;;;;25.23;17.25;;;7.60;99.90;;;;;;5012211;28;20414;-72
2021/01/13 11:33:11;;;;;;;20.37;16.03;;;7.90;99.90;;;;;;5009499;28;20026;-72
2021/01/13 11:35:40;;;;;;;21.90;15.43;;;7.90;99.90;;;;;;5004513;28;20057;-73
2021/01/13 11:38:31;;;;;;;21.73;16.88;;;8.00;99.90;;;;;;5003299;28;20046;-73
2021/01/13 11:41:07;;;;;;;22.05;16.67;;;8.00;99.90;;;;;;5006383;28;20572;-74
2021/01/13 11:43:47;;;;;;;16.95;12.45;;;8.00;99.90;;;;;;5001996;28;20019;-72
2021/01/13 11:46:27;;;;;;;16.33;13.30;;;8.00;99.90;;;;;;5006365;28;20022;-75
2021/01/13 11:49:12;;;;;;;31.30;13.70;;;8.00;99.90;;;;;;5010934;28;20037;-73
2021/01/13 11:51:42;;;;;;;19.50;14.93;;;7.90;99.90;;;;;;5006793;28;20034;-77
2021/01/13 11:54:08;;;;;;;15.70;13.73;;;7.90;99.90;;;;;;5004725;28;20121;-73
2021/01/13 11:56:34;;;;;;;22.85;14.98;;;8.00;99.90;;;;;;5006205;28;20495;-75
2021/01/13 11:59:00;;;;;;;19.67;15.75;;;7.90;99.90;;;;;;5006376;28;20018;-71
2021/01/13 12:01:27;;;;;;;21.35;16.50;;;7.90;99.90;;;;;;5007561;28;20033;-72
2021/01/13 12:04:13;;;;;;;20.60;13.55;;;7.90;99.90;;;;;;5005248;28;20026;-74
2021/01/13 12:06:53;;;;;;;17.98;14.10;;;7.80;99.90;;;;;;5005998;28;20029;-72
2021/01/13 12:09:19;;;;;;;15.25;11.88;;;7.70;99.90;;;;;;5007827;28;20026;-72
2021/01/13 12:11:45;;;;;;;30.88;12.68;;;7.70;99.90;;;;;;5005363;28;20097;-72
2021/01/13 12:14:11;;;;;;;16.13;13.23;;;7.80;99.90;;;;;;5009202;28;20529;-73
2021/01/13 12:16:38;;;;;;;26.85;16.25;;;7.80;99.90;;;;;;5004783;28;20034;-72
2021/01/13 12:19:04;;;;;;;35.33;16.15;;;7.90;99.90;;;;;;5008584;28;20028;-72
2021/01/13 12:21:30;;;;;;;38.47;14.93;;;8.00;99.90;;;;;;5005197;28;20069;-73
2021/01/13 12:24:13;;;;;;;21.92;14.23;;;8.00;99.90;;;;;;5007515;28;20110;-73
2021/01/13 12:26:40;;;;;;;19.52;13.70;;;8.10;99.90;;;;;;5006799;28;20054;-72
2021/01/13 12:29:08;;;;;;;17.02;12.38;;;8.10;99.90;;;;;;4999913;28;20018;-73
2021/01/13 12:31:43;;;;;;;16.45;13.27;;;8.20;99.90;;;;;;5005231;28;20061;-73
2021/01/13 12:34:25;;;;;;;25.17;13.90;;;8.20;99.90;;;;;;5007939;28;20025;-73
2021/01/13 12:36:53;;;;;;;20.40;14.73;;;8.20;99.90;;;;;;5004169;28;20030;-72
2021/01/13 12:39:24;;;;;;;20.48;12.77;;;8.20;99.90;;;;;;5005618;28;20026;-72
2021/01/13 12:41:51;;;;;;;17.45;12.90;;;8.20;99.90;;;;;;5011444;28;20030;-72
2021/01/13 12:44:19;;;;;;;17.52;12.35;;;8.20;99.90;;;;;;5012113;28;20029;-75
2021/01/13 12:46:58;;;;;;;17.50;11.63;;;8.20;99.90;;;;;;5017200;28;20022;-72
2021/01/13 12:49:25;;;;;;;15.57;10.60;;;8.30;99.90;;;;;;5008197;28;20048;-73
2021/01/13 12:51:52;;;;;;;14.82;10.32;;;8.30;99.90;;;;;;5010381;28;20486;-74
2021/01/13 12:54:18;;;;;;;14.75;10.65;;;8.20;99.90;;;;;;5007306;28;20033;-73
2021/01/13 12:56:45;;;;;;;13.27;11.18;;;8.20;99.90;;;;;;5007591;28;20042;-73
2021/01/13 12:59:11;;;;;;;13.15;11.85;;;8.10;99.90;;;;;;5004562;28;20026;-72
2021/01/13 13:01:41;;;;;;;13.50;10.55;;;8.20;99.90;;;;;;5007748;28;20494;-72
2021/01/13 13:04:07;;;;;;;15.23;9.68;;;8.20;99.90;;;;;;5003054;28;20092;-72
2021/01/13 13:06:40;;;;;;;14.13;9.68;;;8.30;99.90;;;;;;5004544;28;20046;-74
2021/01/13 13:09:11;;;;;;;18.92;9.35;;;8.30;99.90;;;;;;5007025;28;20033;-73
2021/01/13 13:11:37;;;;;;;14.93;9.48;;;8.20;99.90;;;;;;5006543;28;20101;-71
2021/01/13 13:14:04;;;;;;;9.10;8.20;;;8.20;99.90;;;;;;5008649;28;20026;-72
2021/01/13 13:16:30;;;;;;;13.38;8.57;;;8.20;99.90;;;;;;5007796;28;20482;-73
2021/01/13 13:18:56;;;;;;;11.27;9.73;;;8.40;99.90;;;;;;5001682;28;20039;-74
2021/01/13 13:21:24;;;;;;;12.43;8.40;;;8.50;99.90;;;;;;5004545;28;20033;-73
2021/01/13 13:23:51;;;;;;;13.00;8.32;;;8.50;99.90;;;;;;5010009;28;20018;-71